Time;durP1;ratioP1;P1;durP2;ratioP2;P2;SDS_P1;SDS_P2;PMS_P1;PMS_P2;Temp;Humidity;BMP_temperature;BMP_pressure;BME280_temperature;BME280_humidity;BME280_pressure;Samples;Min_cycle;Max_cycle;Signal;HPM_P1;HPM_P2
2021/12/07 00:02:10;;;;;;;6.55;3.00;;;6.70;60.60;;;;;;6113578;23;20032;-53
2021/12/07 00:04:38;;;;;;;4.90;2.88;;;6.70;60.70;;;;;;6115027;23;20343;-52
2021/12/07 00:07:05;;;;;;;3.35;2.40;;;6.80;60.80;;;;;;6114452;23;20021;-54
2021/12/07 00:09:31;;;;;;;3.15;2.10;;;6.80;61.00;;;;;;6124774;23;20002;-54
2021/12/07 00:12:03;;;;;;;2.30;1.80;;;6.80;61.00;;;;;;6115473;23;20331;-53
2021/12/07 00:14:37;;;;;;;2.67;1.63;;;6.80;61.10;;;;;;6114963;23;20002;-53
2021/12/07 00:17:04;;;;;;;2.35;1.50;;;6.80;61.10;;;;;;6116868;23;20029;-54
2021/12/07 00:19:30;;;;;;;2.50;1.75;;;6.80;61.10;;;;;;6115207;23;20001;-56
2021/12/07 00:21:57;;;;;;;2.72;2.08;;;6.80;61.30;;;;;;6113106;23;20005;-53
2021/12/07 00:24:23;;;;;;;3.70;1.92;;;6.80;61.30;;;;;;6114325;23;20427;-55
2021/12/07 00:26:50;;;;;;;2.35;1.50;;;6.90;61.40;;;;;;6116260;23;20013;-56
2021/12/07 00:29:16;;;;;;;2.92;1.50;;;6.90;61.40;;;;;;6115489;23;20013;-53
2021/12/07 00:31:52;;;;;;;2.35;1.20;;;6.90;61.50;;;;;;6116016;23;20360;-54
2021/12/07 00:36:50;;;;;;;2.05;1.40;;;6.90;61.50;;;;;;6124022;23;20002;-51
2021/12/07 00:39:19;;;;;;;1.92;1.25;;;7.00;61.50;;;;;;6116831;23;20450;-54
2021/12/07 00:41:48;;;;;;;1.13;1.02;;;7.00;61.60;;;;;;6115426;23;20002;-54
2021/12/07 00:44:15;;;;;;;1.90;1.15;;;7.00;61.50;;;;;;6115010;23;20343;-53
2021/12/07 00:46:41;;;;;;;1.65;1.25;;;7.00;61.40;;;;;;6115282;23;20339;-54
2021/12/07 00:49:08;;;;;;;1.23;1.13;;;7.00;61.20;;;;;;6115811;23;20232;-56
2021/12/07 00:51:34;;;;;;;1.30;0.90;;;7.00;60.90;;;;;;6113295;23;20275;-55
2021/12/07 00:54:01;;;;;;;1.50;1.08;;;7.00;60.50;;;;;;6113769;23;20056;-55
2021/12/07 00:56:27;;;;;;;1.10;1.00;;;7.00;60.30;;;;;;6116438;23;20029;-53
2021/12/07 00:58:54;;;;;;;1.02;0.80;;;6.90;60.10;;;;;;6115951;23;20013;-54
2021/12/07 01:01:21;;;;;;;0.80;0.55;;;6.90;59.90;;;;;;6115408;23;19998;-50
2021/12/07 01:03:49;;;;;;;0.55;0.40;;;6.90;59.80;;;;;;6112438;23;20029;-54
2021/12/07 01:25:08;;;;;;;1.30;0.77;;;6.50;59.50;;;;;;6125092;23;20484;-54
2021/12/07 01:27:35;;;;;;;2.40;0.77;;;6.50;59.50;;;;;;6113252;23;20180;-53
2021/12/07 01:30:16;;;;;;;0.95;0.35;;;6.50;59.60;;;;;;6116761;23;20010;-53
2021/12/07 01:33:12;;;;;;;0.30;0.30;;;6.40;59.60;;;;;;6124327;23;20028;-53
2021/12/07 01:36:32;;;;;;;0.57;0.20;;;6.40;59.70;;;;;;6123497;23;20029;-51
2021/12/07 01:41:24;;;;;;;3.05;0.40;;;6.30;59.70;;;;;;6114782;23;20021;-53
2021/12/07 01:44:07;;;;;;;0.38;0.17;;;6.30;59.80;;;;;;6113177;23;20005;-51
2021/12/07 02:00:01;;;;;;;0.73;0.73;;;6.20;60.60;;;;;;6125092;23;20348;-55
2021/12/07 02:02:29;;;;;;;1.05;0.70;;;6.20;60.80;;;;;;6113588;23;20006;-54
2021/12/07 02:04:56;;;;;;;2.97;0.93;;;6.20;61.10;;;;;;6112823;23;20010;-52
2021/12/07 02:07:23;;;;;;;1.30;1.20;;;6.20;61.60;;;;;;6113103;23;20021;-54
2021/12/07 02:09:54;;;;;;;3.50;1.70;;;6.20;61.90;;;;;;6116171;23;20009;-54
2021/12/07 02:12:21;;;;;;;2.38;1.45;;;6.20;62.30;;;;;;6114434;23;20020;-54
2021/12/07 02:14:48;;;;;;;3.53;2.17;;;6.20;62.60;;;;;;6114544;23;19994;-54
2021/12/07 02:17:17;;;;;;;3.88;2.28;;;6.30;63.20;;;;;;6115492;23;20006;-51
2021/12/07 02:19:43;;;;;;;6.57;2.70;;;6.30;63.70;;;;;;6115105;23;19994;-53
2021/12/07 02:22:10;;;;;;;6.25;2.47;;;6.40;64.00;;;;;;6112933;23;19994;-50
2021/12/07 02:24:37;;;;;;;7.78;3.45;;;6.50;64.10;;;;;;6112669;23;19998;-56
2021/12/07 02:27:04;;;;;;;8.23;3.58;;;6.50;64.70;;;;;;6115292;23;20009;-53
2021/12/07 02:29:30;;;;;;;9.27;3.22;;;6.50;64.90;;;;;;6114841;23;20006;-58
2021/12/07 02:31:58;;;;;;;11.18;2.90;;;6.60;65.20;;;;;;6114214;23;20010;-52
2021/12/07 02:34:25;;;;;;;7.57;2.53;;;6.60;65.40;;;;;;6113580;23;20013;-55
2021/12/07 02:36:53;;;;;;;8.43;2.83;;;6.60;65.40;;;;;;6111725;23;20009;-54
2021/12/07 02:39:32;;;;;;;7.25;2.70;;;6.60;65.50;;;;;;6111250;23;20009;-55
2021/12/07 02:41:58;;;;;;;13.13;2.67;;;6.70;65.90;;;;;;6124552;23;20016;-56
2021/12/07 02:44:24;;;;;;;13.60;2.45;;;6.80;65.80;;;;;;6113400;23;20010;-54
2021/12/07 02:46:51;;;;;;;6.88;3.05;;;6.80;65.80;;;;;;6115074;23;20373;-53
2021/12/07 02:49:19;;;;;;;7.35;3.00;;;6.80;65.90;;;;;;6115416;23;20423;-54
2021/12/07 02:51:46;;;;;;;8.23;2.88;;;6.80;66.00;;;;;;6113987;23;20010;-56
2021/12/07 02:54:13;;;;;;;5.10;2.63;;;6.90;66.10;;;;;;6114625;23;20010;-53
2021/12/07 02:56:39;;;;;;;13.75;3.08;;;6.90;66.00;;;;;;6114317;23;20005;-51
2021/12/07 02:59:05;;;;;;;9.15;3.10;;;7.00;66.00;;;;;;6115201;23;20018;-56
2021/12/07 03:01:36;;;;;;;8.18;2.83;;;7.00;65.90;;;;;;6114434;23;20446;-54
2021/12/07 03:04:08;;;;;;;15.48;3.55;;;7.10;65.90;;;;;;6113662;23;20010;-57
2021/12/07 03:07:43;;;;;;;9.77;3.38;;;7.20;65.70;;;;;;6113376;23;20324;-56
2021/12/07 03:10:12;;;;;;;13.18;3.72;;;7.20;65.60;;;;;;6109427;23;20049;-53
2021/12/07 03:26:36;;;;;;;16.05;4.20;;;7.40;65.40;;;;;;6108385;23;20013;-57
2021/12/07 03:29:03;;;;;;;20.35;5.07;;;7.40;65.50;;;;;;6115354;23;20009;-52
2021/12/07 03:31:30;;;;;;;24.08;5.28;;;7.40;65.60;;;;;;6114288;23;20288;-54
2021/12/07 03:33:59;;;;;;;21.30;5.07;;;7.40;65.70;;;;;;6113491;23;20005;-55
2021/12/07 03:36:27;;;;;;;22.20;4.93;;;7.40;66.00;;;;;;6113301;23;20002;-56
2021/12/07 03:38:53;;;;;;;27.77;5.63;;;7.50;66.10;;;;;;6115505;23;19994;-53
2021/12/07 03:41:20;;;;;;;20.70;4.78;;;7.50;66.20;;;;;;6114435;23;19998;-55
2021/12/07 03:43:47;;;;;;;21.73;5.07;;;7.50;66.40;;;;;;6112358;23;20459;-52
2021/12/07 03:46:15;;;;;;;21.40;5.05;;;7.50;66.50;;;;;;6112258;23;20454;-56
2021/12/07 03:48:42;;;;;;;23.58;4.93;;;7.40;66.70;;;;;;6116072;23;20009;-56
2021/12/07 03:51:08;;;;;;;21.52;5.32;;;7.40;66.90;;;;;;6116264;23;19998;-55
2021/12/07 03:53:36;;;;;;;26.70;5.05;;;7.50;67.10;;;;;;6115972;23;20002;-52
2021/12/07 03:56:04;;;;;;;24.13;5.03;;;7.50;67.20;;;;;;6117059;23;20021;-53
2021/12/07 03:58:31;;;;;;;23.27;5.28;;;7.50;67.20;;;;;;6116699;23;20002;-56
2021/12/07 04:00:57;;;;;;;21.67;5.38;;;7.60;67.00;;;;;;6116848;23;20006;-55
2021/12/07 04:03:23;;;;;;;28.20;5.32;;;7.60;66.70;;;;;;6112494;23;20017;-52
2021/12/07 04:05:54;;;;;;;21.00;5.10;;;7.70;66.70;;;;;;6116767;23;20423;-54
2021/12/07 04:08:24;;;;;;;19.45;4.90;;;7.70;66.60;;;;;;6116101;23;20024;-54
2021/12/07 04:10:51;;;;;;;22.65;5.25;;;7.80;66.30;;;;;;6117269;23;20002;-49
2021/12/07 04:13:17;;;;;;;25.50;4.78;;;7.80;65.90;;;;;;6114365;23;20006;-54
2021/12/07 04:15:43;;;;;;;18.85;4.25;;;7.80;65.80;;;;;;6114352;23;20443;-55
2021/12/07 04:18:11;;;;;;;24.85;4.90;;;7.80;65.60;;;;;;6113002;23;19998;-54
2021/12/07 04:20:38;;;;;;;19.40;4.35;;;7.90;65.50;;;;;;6090712;23;20006;-54
2021/12/07 04:23:05;;;;;;;19.98;4.65;;;7.90;65.20;;;;;;6113562;23;20002;-55
2021/12/07 04:25:32;;;;;;;22.92;5.00;;;8.00;65.20;;;;;;6115053;23;20016;-56
2021/12/07 04:27:59;;;;;;;17.15;4.57;;;8.00;65.00;;;;;;6113750;23;20006;-53
2021/12/07 04:30:30;;;;;;;32.53;4.53;;;8.00;64.80;;;;;;6114549;23;20002;-58
2021/12/07 04:32:58;;;;;;;24.40;5.07;;;8.00;64.60;;;;;;6114792;23;20571;-56
2021/12/07 04:35:25;;;;;;;21.73;5.07;;;8.00;64.40;;;;;;6116092;23;20059;-56
2021/12/07 04:37:52;;;;;;;25.15;4.68;;;8.00;64.30;;;;;;6115283;23;20419;-54
2021/12/07 04:40:22;;;;;;;22.08;4.97;;;8.00;64.20;;;;;;6115648;23;19994;-54
2021/12/07 04:42:48;;;;;;;28.25;5.03;;;8.00;64.20;;;;;;6115452;23;19994;-57
2021/12/07 04:45:48;;;;;;;24.33;4.82;;;8.00;64.10;;;;;;6115397;23;20005;-55
2021/12/07 04:59:05;;;;;;;28.25;5.07;;;8.00;63.80;;;;;;6124178;23;20012;-54
2021/12/07 05:01:32;;;;;;;17.23;4.75;;;8.00;63.70;;;;;;6114213;23;19994;-56
2021/12/07 05:04:04;;;;;;;24.90;5.57;;;8.00;63.80;;;;;;6114416;23;20005;-52
2021/12/07 05:06:33;;;;;;;17.27;4.88;;;8.00;63.90;;;;;;6112903;23;20010;-55
2021/12/07 05:09:08;;;;;;;17.55;4.57;;;7.90;63.70;;;;;;6112157;23;20332;-54
2021/12/07 05:11:50;;;;;;;21.17;4.63;;;7.90;63.60;;;;;;6115148;23;20017;-52
2021/12/07 05:14:25;;;;;;;18.08;4.45;;;7.90;63.60;;;;;;6113937;23;20006;-52
2021/12/07 05:17:02;;;;;;;22.67;4.82;;;8.00;63.70;;;;;;6107517;23;20006;-55
2021/12/07 05:38:29;;;;;;;;;;;8.00;63.50;;;;;;6123340;23;20406;-53
2021/12/07 05:40:55;;;;;;;19.63;4.63;;;8.00;63.60;;;;;;6113976;23;19924;-53
2021/12/07 05:43:21;;;;;;;15.98;4.80;;;8.00;63.30;;;;;;6113052;23;20009;-54
2021/12/07 05:45:47;;;;;;;20.58;5.18;;;8.00;63.20;;;;;;6115224;23;20010;-53
2021/12/07 05:48:14;;;;;;;23.40;4.57;;;8.00;63.20;;;;;;6114017;23;20010;-54
2021/12/07 05:50:41;;;;;;;24.63;4.32;;;8.00;63.00;;;;;;6115921;23;20009;-55
2021/12/07 05:53:10;;;;;;;24.38;4.18;;;8.00;62.90;;;;;;6113563;23;20002;-53
2021/12/07 05:55:36;;;;;;;16.60;4.57;;;8.00;63.00;;;;;;6115941;23;20006;-52
2021/12/07 05:58:04;;;;;;;24.40;4.75;;;8.00;62.90;;;;;;6114573;23;20331;-52
2021/12/07 06:00:32;;;;;;;19.95;3.85;;;8.00;62.80;;;;;;6112936;23;20009;-53
2021/12/07 06:03:05;;;;;;;21.95;4.38;;;8.00;62.80;;;;;;6112692;23;20438;-55
2021/12/07 06:05:33;;;;;;;18.10;3.95;;;8.00;62.60;;;;;;6124423;23;20408;-52
2021/12/07 06:08:00;;;;;;;13.90;3.60;;;8.00;62.50;;;;;;6109226;23;20018;-53
2021/12/07 06:10:27;;;;;;;16.52;4.00;;;8.00;62.50;;;;;;6113192;23;20006;-56
2021/12/07 06:12:53;;;;;;;20.00;4.18;;;8.00;62.50;;;;;;6114440;23;20013;-53
2021/12/07 06:15:22;;;;;;;15.10;3.63;;;8.00;62.50;;;;;;6114922;23;20009;-55
2021/12/07 06:17:49;;;;;;;19.83;4.68;;;8.00;62.30;;;;;;6113544;23;20006;-55
2021/12/07 06:20:16;;;;;;;22.15;3.63;;;8.00;62.10;;;;;;6113917;23;20339;-55
2021/12/07 06:22:42;;;;;;;19.25;3.88;;;8.00;62.10;;;;;;6113619;23;20006;-52
2021/12/07 06:25:10;;;;;;;17.95;3.88;;;8.00;62.00;;;;;;6115302;23;20010;-56
2021/12/07 06:27:38;;;;;;;17.85;3.47;;;8.00;61.90;;;;;;6115190;23;20449;-55
2021/12/07 06:30:05;;;;;;;16.92;3.88;;;8.00;61.80;;;;;;6115627;23;20422;-55
2021/12/07 06:32:32;;;;;;;8.98;3.03;;;8.00;61.80;;;;;;6112252;23;20002;-53
2021/12/07 06:34:58;;;;;;;18.27;4.38;;;8.00;61.70;;;;;;6112240;23;20002;-54
2021/12/07 06:37:24;;;;;;;15.20;4.18;;;8.00;61.70;;;;;;6112541;23;20010;-56
2021/12/07 06:39:51;;;;;;;18.35;3.42;;;8.00;61.80;;;;;;6103161;23;20311;-52
2021/12/07 06:42:18;;;;;;;19.30;3.45;;;8.00;61.90;;;;;;6113067;23;20173;-54
2021/12/07 06:44:44;;;;;;;15.98;3.22;;;8.00;61.70;;;;;;6110116;23;20024;-54
2021/12/07 06:47:10;;;;;;;21.30;3.65;;;8.00;61.80;;;;;;6111864;23;20006;-56
2021/12/07 06:49:37;;;;;;;18.77;4.63;;;8.00;61.80;;;;;;6115298;23;20002;-51
2021/12/07 06:52:04;;;;;;;13.55;3.30;;;8.00;61.70;;;;;;6111957;23;20395;-54
2021/12/07 06:54:31;;;;;;;17.23;3.50;;;8.00;61.60;;;;;;6111112;23;20006;-53
2021/12/07 06:56:57;;;;;;;12.90;3.38;;;8.10;61.60;;;;;;6113991;23;20166;-54
2021/12/07 06:59:23;;;;;;;17.05;3.00;;;8.10;61.60;;;;;;6112514;23;20447;-56
2021/12/07 07:01:50;;;;;;;21.00;3.55;;;8.10;61.50;;;;;;6113761;23;19994;-56
2021/12/07 07:04:16;;;;;;;20.25;3.92;;;8.10;61.50;;;;;;6114677;23;20002;-53
2021/12/07 07:06:43;;;;;;;20.30;3.80;;;8.10;61.40;;;;;;6111847;23;20418;-55
2021/12/07 07:09:10;;;;;;;16.70;3.90;;;8.00;61.20;;;;;;6123516;23;20019;-53
2021/12/07 07:11:37;;;;;;;15.20;3.78;;;8.10;61.30;;;;;;6114805;23;20774;-56
2021/12/07 07:14:03;;;;;;;22.60;3.47;;;8.00;61.20;;;;;;6113553;23;19998;-52
2021/12/07 07:16:30;;;;;;;17.23;3.05;;;8.10;61.10;;;;;;6114205;23;20017;-56
2021/12/07 07:18:57;;;;;;;15.63;3.22;;;8.00;61.00;;;;;;6111913;23;20013;-55
2021/12/07 07:21:25;;;;;;;18.27;3.53;;;8.00;61.10;;;;;;6113550;23;20010;-55
2021/12/07 07:23:52;;;;;;;17.50;2.78;;;8.10;61.20;;;;;;6115412;23;19994;-56
2021/12/07 07:26:19;;;;;;;13.80;2.78;;;8.10;61.00;;;;;;6113689;23;20122;-51
2021/12/07 07:28:46;;;;;;;21.60;3.65;;;8.10;61.10;;;;;;6116005;23;20424;-52
2021/12/07 07:31:14;;;;;;;18.38;2.90;;;8.10;61.00;;;;;;6114359;23;20006;-55
2021/12/07 07:33:40;;;;;;;11.85;2.95;;;8.10;60.70;;;;;;6112694;23;20443;-52
2021/12/07 07:36:07;;;;;;;24.38;3.55;;;8.10;60.70;;;;;;6115222;23;20017;-56
2021/12/07 07:38:33;;;;;;;13.55;2.78;;;8.10;60.90;;;;;;6114605;23;20002;-55
2021/12/07 07:41:00;;;;;;;18.20;3.50;;;8.10;60.50;;;;;;6113978;23;19998;-53
2021/12/07 07:43:26;;;;;;;14.15;3.53;;;8.10;60.50;;;;;;6112917;23;20010;-53
2021/12/07 07:45:53;;;;;;;15.52;2.80;;;8.10;60.40;;;;;;6115394;23;20009;-54
2021/12/07 07:48:21;;;;;;;13.52;3.33;;;8.10;60.50;;;;;;6114124;23;20006;-55
2021/12/07 07:50:50;;;;;;;14.93;3.30;;;8.10;60.50;;;;;;6113274;23;20024;-52
2021/12/07 07:53:16;;;;;;;15.73;3.63;;;8.10;60.30;;;;;;6113278;23;20348;-51
2021/12/07 07:55:43;;;;;;;20.88;3.45;;;8.10;60.20;;;;;;6115942;23;20002;-54
2021/12/07 07:58:11;;;;;;;19.92;3.35;;;8.10;60.20;;;;;;6114494;23;20006;-55
2021/12/07 08:00:40;;;;;;;22.05;3.40;;;8.10;60.20;;;;;;6114640;23;20002;-51
2021/12/07 08:03:07;;;;;;;18.38;3.80;;;8.10;60.10;;;;;;6114892;23;20005;-54
2021/12/07 08:05:33;;;;;;;16.42;3.75;;;8.10;60.00;;;;;;6116393;23;19998;-54
2021/12/07 08:07:59;;;;;;;19.73;3.45;;;8.10;60.00;;;;;;6112852;23;20022;-56
2021/12/07 08:10:28;;;;;;;15.93;3.50;;;8.20;59.90;;;;;;6116100;23;20431;-55
2021/12/07 08:13:01;;;;;;;18.70;4.00;;;8.20;59.90;;;;;;6114359;23;20002;-54
2021/12/07 08:15:29;;;;;;;11.95;2.72;;;8.20;59.90;;;;;;6114418;23;20006;-56
2021/12/07 08:17:56;;;;;;;19.27;3.65;;;8.20;59.80;;;;;;6115072;23;20002;-54
2021/12/07 08:20:22;;;;;;;16.77;3.40;;;8.10;59.70;;;;;;6114494;23;20005;-54
2021/12/07 08:22:48;;;;;;;12.43;3.20;;;8.20;59.70;;;;;;6112869;23;20419;-56
2021/12/07 08:25:15;;;;;;;13.52;3.90;;;8.20;59.70;;;;;;6115995;23;20017;-54
2021/12/07 08:27:41;;;;;;;12.80;2.72;;;8.20;59.70;;;;;;6116283;23;20009;-53
2021/12/07 08:30:10;;;;;;;12.82;3.03;;;8.10;59.70;;;;;;6114572;23;20002;-55
2021/12/07 08:32:36;;;;;;;16.63;3.80;;;8.20;59.70;;;;;;6115393;23;20335;-53
2021/12/07 08:35:02;;;;;;;24.00;4.45;;;8.20;59.70;;;;;;6114115;23;20005;-54
2021/12/07 08:37:29;;;;;;;18.80;3.25;;;8.20;59.60;;;;;;6114003;23;20006;-54
2021/12/07 08:39:55;;;;;;;17.55;2.72;;;8.20;59.70;;;;;;6115462;23;20014;-54
2021/12/07 08:42:21;;;;;;;22.75;3.03;;;8.20;59.70;;;;;;6115654;23;20713;-55
2021/12/07 08:44:47;;;;;;;15.85;3.17;;;8.20;59.60;;;;;;6114809;23;20002;-51
2021/12/07 08:47:14;;;;;;;10.38;2.33;;;8.20;59.60;;;;;;6116217;23;20331;-55
2021/12/07 08:49:40;;;;;;;11.57;2.95;;;8.20;59.50;;;;;;6113103;23;20009;-55
2021/12/07 08:52:07;;;;;;;17.17;3.20;;;8.20;59.40;;;;;;6113691;23;19998;-54
2021/12/07 08:59:38;;;;;;;6.60;2.17;;;8.20;59.40;;;;;;6114008;23;19994;-55
2021/12/07 09:00:06;;;;;;;17.20;3.22;;;8.30;59.30;;;;;;6122545;23;20002;-54
2021/12/07 09:02:33;;;;;;;13.35;2.58;;;8.20;59.10;;;;;;6111529;23;20032;-53
2021/12/07 09:05:00;;;;;;;10.70;1.92;;;8.30;59.00;;;;;;6112366;23;20002;-54
2021/12/07 09:07:27;;;;;;;15.43;2.42;;;8.30;58.80;;;;;;6113706;23;20335;-57
2021/12/07 09:09:53;;;;;;;10.35;2.20;;;8.30;58.90;;;;;;6114274;23;20181;-53
2021/12/07 09:12:21;;;;;;;12.13;1.80;;;8.30;58.90;;;;;;6113873;23;20007;-54
2021/12/07 09:14:48;;;;;;;13.38;2.47;;;8.30;58.80;;;;;;6111073;23;20018;-54
2021/12/07 09:17:15;;;;;;;13.98;2.28;;;8.30;58.80;;;;;;6114506;23;20017;-54
2021/12/07 09:19:41;;;;;;;13.75;2.40;;;8.30;58.50;;;;;;6113976;23;20158;-54
2021/12/07 09:22:07;;;;;;;11.00;1.95;;;8.30;58.40;;;;;;6114447;23;20005;-54
2021/12/07 09:24:34;;;;;;;14.20;2.88;;;8.30;58.40;;;;;;6114515;23;20006;-56
2021/12/07 09:27:02;;;;;;;14.10;2.25;;;8.30;58.50;;;;;;6115004;23;20010;-55
2021/12/07 09:29:29;;;;;;;9.88;2.25;;;8.30;58.50;;;;;;6115052;23;20016;-55
2021/12/07 09:31:55;;;;;;;21.42;3.00;;;8.30;58.50;;;;;;6111056;23;20339;-53
2021/12/07 09:34:22;;;;;;;14.23;2.08;;;8.30;58.40;;;;;;6113079;23;20009;-54
2021/12/07 09:36:48;;;;;;;7.85;2.50;;;8.30;58.30;;;;;;6111421;23;20002;-52
2021/12/07 09:39:17;;;;;;;15.00;3.13;;;8.30;58.40;;;;;;6114060;23;20035;-56
2021/12/07 09:41:44;;;;;;;11.52;2.30;;;8.30;58.40;;;;;;6113636;23;20009;-53
2021/12/07 09:44:11;;;;;;;12.82;3.20;;;8.30;58.20;;;;;;6111913;23;20335;-52
2021/12/07 09:46:39;;;;;;;12.77;2.40;;;8.30;58.10;;;;;;6113065;23;20010;-55
2021/12/07 09:49:07;;;;;;;10.82;2.42;;;8.40;58.10;;;;;;6114359;23;20005;-54
2021/12/07 09:51:33;;;;;;;11.23;2.38;;;8.40;58.00;;;;;;6112112;23;20013;-54
2021/12/07 09:54:00;;;;;;;12.32;2.15;;;8.40;58.00;;;;;;6114425;23;20014;-56
2021/12/07 09:56:27;;;;;;;13.80;2.78;;;8.40;57.90;;;;;;6114319;23;20002;-55
2021/12/07 09:58:56;;;;;;;10.77;2.10;;;8.40;57.90;;;;;;6114579;23;19998;-53
2021/12/07 10:01:23;;;;;;;12.20;2.28;;;8.40;57.90;;;;;;6109663;23;20010;-53
2021/12/07 10:03:51;;;;;;;13.23;2.75;;;8.50;57.80;;;;;;6112380;23;20010;-50
2021/12/07 10:06:18;;;;;;;14.15;2.17;;;8.50;57.60;;;;;;6112457;23;20024;-54
2021/12/07 10:08:45;;;;;;;12.98;2.55;;;8.50;57.50;;;;;;6114025;23;20026;-54
2021/12/07 10:11:12;;;;;;;13.40;2.67;;;8.50;57.30;;;;;;6114588;23;20538;-54
2021/12/07 10:13:41;;;;;;;11.32;2.45;;;8.50;57.30;;;;;;6111776;23;20173;-53
2021/12/07 10:16:09;;;;;;;17.02;4.70;;;8.50;57.30;;;;;;6113036;23;20006;-53
2021/12/07 10:18:38;;;;;;;14.52;3.00;;;8.50;57.30;;;;;;6105317;23;20482;-55
2021/12/07 10:21:14;;;;;;;14.68;2.90;;;8.50;57.30;;;;;;6103096;23;20010;-53
2021/12/07 10:23:44;;;;;;;8.20;2.00;;;8.50;57.30;;;;;;6108010;23;20120;-55
2021/12/07 10:26:16;;;;;;;14.27;2.83;;;8.50;57.30;;;;;;6112331;23;20021;-55
2021/12/07 10:28:50;;;;;;;10.00;2.38;;;8.50;57.10;;;;;;6109898;23;20013;-55
2021/12/07 10:31:21;;;;;;;;;;;8.50;57.00;;;;;;6108585;23;20482;-55
2021/12/07 10:33:52;;;;;;;7.32;1.73;;;8.50;57.30;;;;;;6111477;23;19901;-53
2021/12/07 10:36:20;;;;;;;11.95;2.58;;;8.50;57.10;;;;;;6111417;23;20006;-55
2021/12/07 10:39:12;;;;;;;13.50;2.30;;;8.50;57.10;;;;;;6113052;23;20013;-54
2021/12/07 10:41:46;;;;;;;8.95;2.10;;;8.50;57.00;;;;;;6124787;23;20002;-55
2021/12/07 10:44:16;;;;;;;10.82;2.10;;;8.50;56.80;;;;;;6124794;23;19998;-54
2021/12/07 10:46:48;;;;;;;18.42;2.20;;;8.50;56.80;;;;;;6114256;23;20017;-56
2021/12/07 10:49:22;;;;;;;15.00;2.00;;;8.40;56.80;;;;;;6115231;23;20029;-54
2021/12/07 10:52:15;;;;;;;6.95;1.65;;;8.50;56.70;;;;;;6113185;23;19998;-56
2021/12/07 10:54:59;;;;;;;11.20;2.97;;;8.40;56.60;;;;;;6123984;23;20036;-52
2021/12/07 10:57:45;;;;;;;13.32;2.72;;;8.50;56.50;;;;;;6124939;23;20013;-56
2021/12/07 11:00:33;;;;;;;8.88;1.75;;;8.50;56.60;;;;;;6114061;23;20288;-55
2021/12/07 11:03:02;;;;;;;17.55;2.22;;;8.50;56.20;;;;;;6124834;23;19994;-54
2021/12/07 11:05:43;;;;;;;6.75;1.67;;;8.50;56.20;;;;;;6116504;23;20009;-54
2021/12/07 11:08:10;;;;;;;17.33;2.55;;;8.50;55.80;;;;;;6114960;23;20057;-54
2021/12/07 11:10:43;;;;;;;13.40;2.30;;;8.50;55.80;;;;;;6117197;23;20010;-55
2021/12/07 11:13:18;;;;;;;15.65;2.65;;;8.50;55.70;;;;;;6116222;23;20033;-57
2021/12/07 11:16:09;;;;;;;8.15;2.47;;;8.50;55.60;;;;;;6116744;23;20013;-55
2021/12/07 11:18:41;;;;;;;10.52;2.25;;;8.60;55.70;;;;;;6116244;23;20014;-54
2021/12/07 11:21:12;;;;;;;9.73;1.80;;;8.60;55.90;;;;;;6110932;23;20006;-53
2021/12/07 11:23:45;;;;;;;8.55;1.60;;;8.60;55.60;;;;;;6122612;23;20006;-56
2021/12/07 11:31:39;;;;;;;10.65;1.90;;;8.60;55.40;;;;;;6123262;23;20013;-57
2021/12/07 11:34:13;;;;;;;20.85;2.13;;;8.70;55.20;;;;;;6116932;23;20435;-55
2021/12/07 11:36:47;;;;;;;10.82;2.08;;;8.70;55.20;;;;;;6114275;23;20013;-56
2021/12/07 11:39:21;;;;;;;9.43;2.10;;;8.70;55.20;;;;;;6127245;23;20009;-56
2021/12/07 11:41:51;;;;;;;13.00;2.47;;;8.70;55.20;;;;;;6114989;23;20323;-53
2021/12/07 11:44:22;;;;;;;8.27;1.85;;;8.70;55.20;;;;;;6138329;23;20435;-54
2021/12/07 11:46:50;;;;;;;15.43;2.22;;;8.70;55.20;;;;;;6126512;23;20002;-53
2021/12/07 11:49:26;;;;;;;7.00;1.65;;;8.70;55.20;;;;;;6116710;23;20005;-56
2021/12/07 11:51:56;;;;;;;9.05;1.60;;;8.80;55.10;;;;;;6123606;23;20435;-56
2021/12/07 11:54:27;;;;;;;13.68;3.20;;;8.80;55.40;;;;;;6116905;23;20002;-56
2021/12/07 11:56:54;;;;;;;9.13;1.90;;;8.80;54.70;;;;;;6125711;23;19998;-56
2021/12/07 11:59:20;;;;;;;10.30;1.95;;;8.80;55.10;;;;;;6116606;23;19998;-54
2021/12/07 12:01:49;;;;;;;9.93;1.73;;;8.80;54.60;;;;;;6116407;23;20002;-57
2021/12/07 12:04:17;;;;;;;8.32;1.42;;;8.80;54.50;;;;;;6114826;23;20324;-54
2021/12/07 12:06:52;;;;;;;9.70;2.05;;;8.80;54.70;;;;;;6115101;23;20006;-54
2021/12/07 12:09:20;;;;;;;11.77;2.35;;;8.80;54.70;;;;;;6124036;23;19998;-54
2021/12/07 12:12:04;;;;;;;13.10;3.75;;;8.90;54.60;;;;;;6114466;23;20206;-54
2021/12/07 12:14:40;;;;;;;10.07;1.77;;;8.90;54.30;;;;;;6125550;23;20002;-54
2021/12/07 12:17:31;;;;;;;15.63;2.05;;;8.90;54.30;;;;;;6125365;23;20009;-57
2021/12/07 12:20:30;;;;;;;7.22;1.73;;;8.90;54.00;;;;;;6115758;23;20010;-56
2021/12/07 12:23:12;;;;;;;10.23;1.75;;;8.90;54.00;;;;;;6110186;23;20044;-55
2021/12/07 12:25:38;;;;;;;7.28;1.63;;;8.90;54.10;;;;;;6112095;23;20021;-53
2021/12/07 12:28:04;;;;;;;6.50;1.60;;;8.90;54.00;;;;;;6115651;23;20005;-52
2021/12/07 12:30:34;;;;;;;9.48;1.63;;;8.90;53.90;;;;;;6115177;23;19994;-56
2021/12/07 12:33:04;;;;;;;7.50;1.42;;;8.90;53.80;;;;;;6114330;23;20296;-52
2021/12/07 12:35:34;;;;;;;7.65;1.40;;;8.90;53.90;;;;;;6113890;23;20002;-54
2021/12/07 12:38:02;;;;;;;11.30;1.58;;;8.90;53.90;;;;;;6114951;23;20355;-55
2021/12/07 12:40:32;;;;;;;13.52;1.90;;;8.90;53.80;;;;;;6115691;23;20009;-54
2021/12/07 12:43:02;;;;;;;6.82;1.60;;;8.80;53.70;;;;;;6114410;23;20002;-54
2021/12/07 12:45:34;;;;;;;11.68;1.77;;;8.80;53.70;;;;;;6116084;23;20486;-55
2021/12/07 12:48:27;;;;;;;7.88;1.80;;;8.80;53.70;;;;;;6116605;23;20009;-56
2021/12/07 12:50:54;;;;;;;8.10;1.42;;;8.80;53.70;;;;;;6125042;23;19998;-54
2021/12/07 12:53:22;;;;;;;5.25;1.50;;;8.80;53.80;;;;;;6110077;23;20025;-53
2021/12/07 12:55:51;;;;;;;8.68;1.92;;;8.80;53.90;;;;;;6114709;23;20005;-54
2021/12/07 12:58:20;;;;;;;5.82;1.45;;;8.80;53.90;;;;;;6115494;23;20010;-54
2021/12/07 13:01:20;;;;;;;8.57;1.50;;;8.80;53.80;;;;;;6115220;23;20331;-54
2021/12/07 13:03:55;;;;;;;10.65;2.08;;;8.80;53.40;;;;;;6114711;23;20017;-54
2021/12/07 13:06:24;;;;;;;7.10;1.65;;;8.80;53.50;;;;;;6121420;23;19998;-57
2021/12/07 13:09:00;;;;;;;9.38;1.30;;;8.80;53.40;;;;;;6111920;23;20010;-57
2021/12/07 13:11:45;;;;;;;6.20;1.30;;;8.80;53.40;;;;;;6117171;23;20504;-54
2021/12/07 13:14:23;;;;;;;8.00;1.30;;;8.80;53.30;;;;;;6105743;23;20486;-52
2021/12/07 13:16:52;;;;;;;3.60;1.30;;;8.80;53.30;;;;;;6106322;23;20001;-53
2021/12/07 13:19:19;;;;;;;11.85;1.88;;;8.80;53.40;;;;;;6106401;23;20005;-55
2021/12/07 13:21:48;;;;;;;7.53;1.65;;;8.70;53.30;;;;;;6106680;23;20007;-53
2021/12/07 13:24:29;;;;;;;5.82;1.40;;;8.80;53.10;;;;;;6107989;23;20450;-56
2021/12/07 13:26:56;;;;;;;7.45;1.88;;;8.70;52.80;;;;;;6118244;23;19994;-56
2021/12/07 13:29:25;;;;;;;6.75;1.40;;;8.70;52.80;;;;;;6107732;23;20009;-55
2021/12/07 13:35:30;;;;;;;10.40;2.03;;;8.70;52.60;;;;;;6136874;23;20009;-54
2021/12/07 13:37:56;;;;;;;10.85;1.65;;;8.70;52.80;;;;;;6118509;23;20002;-57
2021/12/07 13:40:24;;;;;;;7.75;1.60;;;8.60;52.90;;;;;;6112970;23;20002;-55
2021/12/07 13:42:52;;;;;;;5.20;1.55;;;8.60;52.80;;;;;;6112841;23;20331;-53
2021/12/07 13:45:21;;;;;;;5.70;1.45;;;8.60;53.40;;;;;;6112788;23;19998;-52
2021/12/07 13:47:51;;;;;;;7.97;1.50;;;8.60;53.10;;;;;;6115668;23;20009;-54
2021/12/07 13:50:29;;;;;;;9.95;1.88;;;8.60;53.10;;;;;;6114077;23;20232;-55
2021/12/07 13:52:56;;;;;;;7.45;1.48;;;8.60;52.90;;;;;;6109151;23;20019;-56
2021/12/07 13:55:30;;;;;;;14.35;1.25;;;8.50;53.00;;;;;;6113661;23;20006;-57
2021/12/07 13:57:59;;;;;;;12.52;1.83;;;8.50;53.10;;;;;;6113370;23;20022;-54
2021/12/07 14:00:29;;;;;;;4.75;1.35;;;8.50;53.20;;;;;;6114227;23;20006;-54
2021/12/07 14:03:07;;;;;;;5.50;1.23;;;8.50;53.30;;;;;;6113915;23;20013;-55
2021/12/07 14:05:36;;;;;;;8.93;1.92;;;8.50;53.30;;;;;;6123266;23;20013;-53
2021/12/07 14:08:12;;;;;;;11.82;1.38;;;8.50;53.90;;;;;;6111413;23;20018;-54
2021/12/07 14:10:44;;;;;;;16.30;4.45;;;8.40;53.30;;;;;;6122642;23;19998;-52
2021/12/07 14:13:12;;;;;;;13.25;3.80;;;8.50;53.30;;;;;;6110003;23;20009;-56
2021/12/07 14:15:41;;;;;;;11.25;2.88;;;8.40;53.30;;;;;;6111374;23;20001;-56
2021/12/07 14:18:11;;;;;;;8.82;1.98;;;8.40;53.20;;;;;;6112545;23;20018;-54
2021/12/07 14:20:43;;;;;;;23.98;6.60;;;8.40;53.30;;;;;;6114019;23;20009;-57
2021/12/07 14:23:29;;;;;;;48.80;14.13;;;8.30;53.40;;;;;;6112423;23;20399;-56
2021/12/07 14:26:06;;;;;;;45.22;13.43;;;8.30;53.40;;;;;;6106522;23;20029;-54
2021/12/07 14:28:36;;;;;;;27.52;9.75;;;8.30;53.40;;;;;;6102001;23;20002;-53
2021/12/07 14:31:15;;;;;;;25.80;7.35;;;8.30;53.40;;;;;;6106155;23;20009;-53
2021/12/07 14:34:01;;;;;;;27.98;7.43;;;8.30;53.40;;;;;;6108261;23;20459;-56
2021/12/07 14:36:39;;;;;;;18.90;6.28;;;8.20;53.30;;;;;;6116396;23;20006;-56
2021/12/07 14:39:10;;;;;;;11.50;3.15;;;8.20;53.40;;;;;;6116503;23;20013;-56